createdAt,value
2022-11-29T00:04:50.055Z,77.72
2022-11-29T00:10:11.813Z,78.00
2022-11-29T00:15:37.891Z,78.04
2022-11-29T00:21:00.075Z,78.13
2022-11-29T00:26:22.351Z,78.26
2022-11-29T00:31:44.788Z,78.44
2022-11-29T00:37:06.410Z,78.60
2022-11-29T00:42:28.340Z,78.67
2022-11-29T00:47:50.561Z,78.87
2022-11-29T00:53:12.364Z,78.97
2022-11-29T00:58:35.989Z,79.00
2022-11-29T01:03:57.964Z,79.15
2022-11-29T01:09:21.099Z,79.12
2022-11-29T01:14:43.921Z,79.12
2022-11-29T01:20:08.515Z,79.23
2022-11-29T01:25:32.314Z,79.31
2022-11-29T01:30:54.361Z,79.06
2022-11-29T01:36:16.425Z,79.25
2022-11-29T01:41:38.497Z,79.43
2022-11-29T01:47:00.286Z,79.04
2022-11-29T01:52:26.870Z,79.14
2022-11-29T01:57:48.598Z,79.03
2022-11-29T02:03:13.059Z,79.07
2022-11-29T02:08:41.198Z,79.03
2022-11-29T02:14:09.537Z,79.17
2022-11-29T02:20:06.393Z,79.10
2022-11-29T02:25:55.314Z,78.92
2022-11-29T02:31:44.541Z,79.05
2022-11-29T02:37:12.591Z,78.76
2022-11-29T02:42:56.558Z,78.95
2022-11-29T02:48:51.044Z,78.79
2022-11-29T02:54:26.818Z,78.81
2022-11-29T03:00:04.005Z,78.68
2022-11-29T03:05:47.972Z,78.50
2022-11-29T03:11:48.118Z,78.43
2022-11-29T03:17:26.559Z,78.47
2022-11-29T03:23:15.295Z,78.25
2022-11-29T03:28:40.289Z,78.15
2022-11-29T03:34:28.726Z,78.61
2022-11-29T03:40:03.385Z,78.72
2022-11-29T03:45:41.314Z,78.70
2022-11-29T03:51:07.749Z,78.67
2022-11-29T03:56:38.416Z,78.63
2022-11-29T04:02:46.980Z,78.71
2022-11-29T04:08:14.924Z,78.47
2022-11-29T04:14:08.090Z,78.30
2022-11-29T04:20:05.644Z,78.22
2022-11-29T04:25:55.074Z,78.18
2022-11-29T04:31:32.639Z,78.09
2022-11-29T04:37:15.060Z,77.90
2022-11-29T04:43:01.673Z,77.94
2022-11-29T04:48:43.772Z,77.94
2022-11-29T04:54:12.122Z,77.71
2022-11-29T04:59:47.833Z,77.71
2022-11-29T05:05:24.785Z,77.58
2022-11-29T05:11:02.751Z,77.24
2022-11-29T05:16:49.199Z,77.60
2022-11-29T05:22:41.629Z,77.55
2022-11-29T05:28:58.242Z,77.41
2022-11-29T05:34:35.740Z,77.49
2022-11-29T05:40:26.659Z,77.59
2022-11-29T05:46:03.893Z,77.65
2022-11-29T05:51:39.517Z,77.74
2022-11-29T05:57:22.316Z,77.90
2022-11-29T06:03:03.599Z,77.89
2022-11-29T06:08:30.047Z,77.49
2022-11-29T06:14:09.820Z,76.44
2022-11-29T06:19:40.620Z,76.00
2022-11-29T06:25:16.957Z,76.23
2022-11-29T06:31:04.458Z,76.22
2022-11-29T06:36:32.234Z,76.41
2022-11-29T06:41:53.890Z,76.78
2022-11-29T06:47:39.842Z,77.35
2022-11-29T06:53:16.691Z,78.17
2022-11-29T06:59:04.708Z,78.13
2022-11-29T07:04:32.660Z,78.03
2022-11-29T07:09:59.648Z,77.80
2022-11-29T07:15:23.403Z,77.69
2022-11-29T07:20:48.081Z,77.62
2022-11-29T07:26:14.982Z,77.13
2022-11-29T07:32:05.957Z,76.98
2022-11-29T07:37:37.388Z,76.64
2022-11-29T07:43:11.392Z,75.80
2022-11-29T07:48:33.321Z,76.09
2022-11-29T07:53:55.352Z,76.34
2022-11-29T07:59:17.162Z,75.95
2022-11-29T08:04:45.956Z,75.88
2022-11-29T08:10:14.836Z,75.83
2022-11-29T08:15:37.222Z,75.91
2022-11-29T08:20:59.047Z,75.91
2022-11-29T08:26:25.460Z,75.84
2022-11-29T08:31:53.845Z,76.00
2022-11-29T08:37:15.706Z,75.64
2022-11-29T08:42:37.702Z,75.47
2022-11-29T08:47:59.627Z,74.88
2022-11-29T08:53:40.377Z,74.75
2022-11-29T08:59:02.679Z,74.87
2022-11-29T09:04:24.547Z,74.09
2022-11-29T09:09:46.216Z,73.81
2022-11-29T09:15:10.255Z,74.00
2022-11-29T09:20:32.928Z,73.41
2022-11-29T09:25:55.616Z,73.50
2022-11-29T09:31:17.820Z,73.05
2022-11-29T09:36:40.347Z,72.84
2022-11-29T09:42:12.728Z,72.25
2022-11-29T09:48:06.987Z,71.84
2022-11-29T09:53:35.533Z,71.77
2022-11-29T09:59:00.453Z,71.38
2022-11-29T10:04:27.062Z,71.02
2022-11-29T10:10:01.899Z,70.79
2022-11-29T10:15:27.509Z,70.56
2022-11-29T10:20:51.202Z,69.90
2022-11-29T10:26:13.032Z,69.29
2022-11-29T10:31:42.944Z,69.41
2022-11-29T10:37:04.799Z,68.88
2022-11-29T10:42:46.653Z,68.91
2022-11-29T10:48:15.702Z,68.67
2022-11-29T10:53:37.580Z,68.33
2022-11-29T10:59:06.286Z,67.88
2022-11-29T11:04:34.775Z,67.27
2022-11-29T11:09:57.372Z,67.27
2022-11-29T11:15:30.211Z,66.95
2022-11-29T11:20:57.993Z,67.35
2022-11-29T11:26:20.661Z,66.94
2022-11-29T11:31:42.531Z,66.60
2022-11-29T11:37:23.185Z,66.46
2022-11-29T11:42:45.415Z,67.00
2022-11-29T11:48:15.072Z,66.28
2022-11-29T11:53:37.950Z,65.94
2022-11-29T11:59:00.339Z,65.98
2022-11-29T12:04:30.338Z,66.21
2022-11-29T12:09:56.136Z,65.71
2022-11-29T12:15:22.860Z,65.67
2022-11-29T12:21:05.726Z,65.45
2022-11-29T12:26:56.419Z,65.23
2022-11-29T12:32:41.922Z,64.69
2022-11-29T12:38:32.899Z,64.29
2022-11-29T12:44:13.556Z,64.67
2022-11-29T12:49:54.187Z,64.37
2022-11-29T12:55:32.901Z,64.14
2022-11-29T13:01:19.049Z,64.18
2022-11-29T13:06:51.620Z,63.58
2022-11-29T13:12:35.722Z,63.70
2022-11-29T13:18:01.370Z,63.75
2022-11-29T13:29:26.473Z,64.42
2022-11-29T13:34:49.243Z,64.48
2022-11-29T13:40:23.978Z,64.71
2022-11-29T13:46:09.429Z,65.22
2022-11-29T13:51:37.512Z,65.37
2022-11-29T13:57:07.900Z,65.45
2022-11-29T14:02:31.705Z,65.71
2022-11-29T14:08:55.066Z,65.93
2022-11-29T14:14:15.779Z,66.21
2022-11-29T14:19:37.367Z,66.41
2022-11-29T14:25:01.144Z,66.34
2022-11-29T14:30:31.908Z,66.43
2022-11-29T14:36:17.607Z,66.25
2022-11-29T14:41:45.633Z,66.29
2022-11-29T14:47:17.770Z,66.34
2022-11-29T14:52:40.994Z,66.70
2022-11-29T14:58:06.348Z,66.64
2022-11-29T15:03:29.546Z,67.00
2022-11-29T15:09:01.060Z,66.83
2022-11-29T15:14:25.803Z,67.03
2022-11-29T15:20:15.400Z,67.10
2022-11-29T15:25:46.689Z,66.54
2022-11-29T15:31:10.348Z,66.49
2022-11-29T15:36:32.092Z,66.45
2022-11-29T15:41:59.999Z,66.37
2022-11-29T15:47:26.347Z,66.57
2022-11-29T15:52:48.576Z,66.31
2022-11-29T15:58:12.893Z,67.16
2022-11-29T16:03:39.009Z,67.73
2022-11-29T16:09:01.862Z,67.81
2022-11-29T16:14:28.451Z,68.08
2022-11-29T16:19:50.238Z,68.55
2022-11-29T16:25:17.749Z,68.22
2022-11-29T16:30:42.076Z,68.57
2022-11-29T16:36:19.518Z,68.80
2022-11-29T16:41:41.641Z,69.66
2022-11-29T16:47:16.444Z,70.55
2022-11-29T16:52:38.646Z,70.92
2022-11-29T16:58:00.275Z,71.18
2022-11-29T17:03:22.810Z,71.30
2022-11-29T17:08:45.534Z,71.81
2022-11-29T17:14:08.546Z,71.84
2022-11-29T17:19:31.201Z,72.89
2022-11-29T17:24:53.711Z,73.24
2022-11-29T17:30:15.972Z,73.87
2022-11-29T17:35:38.093Z,73.94
2022-11-29T17:41:00.025Z,74.13
2022-11-29T17:46:25.214Z,74.53
2022-11-29T17:51:52.151Z,74.68
2022-11-29T17:57:14.900Z,75.30
2022-11-29T18:02:36.910Z,75.45
2022-11-29T18:07:59.426Z,75.28
2022-11-29T18:13:21.632Z,75.44
2022-11-29T18:18:43.868Z,75.79
2022-11-29T18:24:06.753Z,75.52
2022-11-29T18:29:32.777Z,75.98
2022-11-29T18:35:01.895Z,76.46
2022-11-29T18:40:23.724Z,76.37
2022-11-29T18:45:45.636Z,76.58
2022-11-29T18:51:11.007Z,76.89
2022-11-29T18:56:34.631Z,77.35
2022-11-29T19:01:57.016Z,77.36
2022-11-29T19:07:18.791Z,77.65
2022-11-29T19:12:40.617Z,77.55
2022-11-29T19:18:02.247Z,77.07
2022-11-29T19:23:24.475Z,77.41
2022-11-29T19:28:46.673Z,77.79
2022-11-29T19:34:08.783Z,77.81
2022-11-29T19:39:34.026Z,77.72
2022-11-29T19:50:38.376Z,78.33
2022-11-29T19:56:05.305Z,78.46
2022-11-29T20:01:37.725Z,78.49
2022-11-29T20:07:02.744Z,78.23
2022-11-29T20:12:24.432Z,78.09
2022-11-29T20:17:46.521Z,78.80
2022-11-29T20:23:08.551Z,78.95
2022-11-29T20:28:30.804Z,79.04
2022-11-29T20:33:54.417Z,79.41
2022-11-29T20:39:25.633Z,79.43
2022-11-29T20:44:58.214Z,79.55
2022-11-29T20:50:24.097Z,79.68
2022-11-29T20:55:48.525Z,79.57
2022-11-29T21:01:10.627Z,79.11
2022-11-29T21:06:37.248Z,78.93
2022-11-29T21:11:59.687Z,79.51
2022-11-29T21:17:22.636Z,79.75
2022-11-29T21:22:47.204Z,79.21
2022-11-29T21:28:12.424Z,78.61
2022-11-29T21:33:34.777Z,78.72
2022-11-29T21:38:58.753Z,79.17
2022-11-29T21:44:22.553Z,79.53
2022-11-29T21:49:45.127Z,79.49
2022-11-29T21:55:07.616Z,79.26
2022-11-29T22:00:34.435Z,79.18
2022-11-29T22:06:06.429Z,79.92
2022-11-29T22:11:31.240Z,80.11
2022-11-29T22:17:00.555Z,80.57
2022-11-29T22:22:25.960Z,80.54
2022-11-29T22:27:50.498Z,80.22
2022-11-29T22:33:13.628Z,80.30
2022-11-29T22:38:36.170Z,80.53
2022-11-29T22:43:58.293Z,80.52
2022-11-29T22:49:20.041Z,80.22
2022-11-29T22:54:42.152Z,80.53
2022-11-29T23:00:07.393Z,80.72
2022-11-29T23:05:32.248Z,80.49
2022-11-29T23:10:56.712Z,80.77
2022-11-29T23:16:21.814Z,80.09
2022-11-29T23:21:45.943Z,80.17
2022-11-29T23:27:07.782Z,80.22
2022-11-29T23:32:30.299Z,80.80
2022-11-29T23:37:52.008Z,80.82
2022-11-29T23:43:14.029Z,80.83
2022-11-29T23:48:36.135Z,81.06
2022-11-29T23:53:57.929Z,80.11
2022-11-29T23:59:20.056Z,80.28
